Time;durP1;ratioP1;P1;durP2;ratioP2;P2;SDS_P1;SDS_P2;PMS_P1;PMS_P2;Temp;Humidity;BMP_temperature;BMP_pressure;BME280_temperature;BME280_humidity;BME280_pressure;Samples;Min_cycle;Max_cycle;Signal;HPM_P1;HPM_P2
2022/08/13 08:47:35;;;;;;;;;5.00;5.00;;;;;27.51;30.29;101023.59;5123023;27;1402952;-65
2022/08/13 08:50:01;;;;;;;;;7.50;6.00;;;;;27.63;30.47;101027.78;5137970;27;45209;-63
2022/08/13 08:55:13;;;;;;;;;6.75;6.75;;;;;28.09;29.41;101028.72;5140086;27;45385;-64
2022/08/13 08:57:41;;;;;;;;;3.75;3.50;;;;;28.26;28.90;101030.66;5144946;27;46254;-63
2022/08/13 09:00:11;;;;;;;;;5.75;5.00;;;;;28.41;29.23;101025.59;5145985;27;45444;-62
2022/08/13 09:02:37;;;;;;;;;6.75;6.75;;;;;28.55;29.12;101025.09;5147303;27;45335;-47
2022/08/13 09:05:04;;;;;;;;;5.75;5.75;;;;;28.67;29.66;101021.22;5147184;27;45306;-49
2022/08/13 09:07:30;;;;;;;;;8.50;7.75;;;;;28.86;29.83;101032.78;5145152;27;46832;-46
2022/08/13 09:09:57;;;;;;;;;5.00;5.00;;;;;29.02;29.47;101024.88;5143822;27;45640;-49
2022/08/13 09:12:27;;;;;;;;;6.00;6.00;;;;;29.17;28.94;101026.00;5145641;27;45309;-47
2022/08/13 09:14:56;;;;;;;;;6.50;6.50;;;;;29.27;29.09;101021.44;5143173;27;45471;-48
2022/08/13 09:17:22;;;;;;;;;6.00;6.00;;;;;29.36;29.04;101020.47;5144813;27;46247;-51
2022/08/13 09:19:48;;;;;;;;;5.00;5.00;;;;;29.44;27.00;101025.06;5150566;27;45392;-48
2022/08/13 09:22:19;;;;;;;;;6.75;6.75;;;;;29.52;27.82;101021.59;5143828;27;45149;-49
2022/08/13 09:24:47;;;;;;;;;6.00;6.00;;;;;29.60;27.20;101018.97;5146075;27;45608;-49
2022/08/13 09:27:16;;;;;;;;;5.75;5.75;;;;;29.62;26.43;101017.81;5139054;27;46654;-49
2022/08/13 09:29:43;;;;;;;;;8.00;7.00;;;;;29.66;27.84;101013.00;5157266;27;45459;-46
2022/08/13 09:32:09;;;;;;;;;5.00;5.00;;;;;29.74;27.27;101012.19;5141647;27;45479;-47
2022/08/13 09:34:39;;;;;;;;;5.25;5.25;;;;;29.82;25.89;101029.13;5134126;27;45330;-48
2022/08/13 09:37:05;;;;;;;;;4.75;4.75;;;;;29.82;25.70;101018.41;5147389;27;46492;-45
2022/08/13 09:39:46;;;;;;;;;7.00;6.00;;;;;29.85;27.35;101018.13;5133550;27;45381;-46
2022/08/13 09:42:18;;;;;;;;;5.00;4.00;;;;;29.94;25.94;101027.84;5138024;27;45436;-48
2022/08/13 09:44:43;;;;;;;;;7.50;7.50;;;;;30.02;26.14;101019.00;5140450;27;45450;-49
2022/08/13 09:47:12;;;;;;;;;7.25;7.00;;;;;30.12;26.11;101019.75;5133061;27;46411;-47
2022/08/13 09:49:38;;;;;;;;;10.50;10.00;;;;;30.19;26.88;101014.56;5145879;27;45660;-46
2022/08/13 09:52:03;;;;;;;;;9.00;8.00;;;;;30.24;26.48;101006.91;5137806;27;45882;-47
2022/08/13 09:54:29;;;;;;;;;4.00;4.00;;;;;30.25;25.24;101019.31;5133613;27;45623;-47
2022/08/13 09:56:58;;;;;;;;;10.50;9.50;;;;;30.30;26.87;101014.28;5141533;27;46694;-46
2022/08/13 09:59:23;;;;;;;;;5.00;5.00;;;;;30.33;26.46;101008.59;5130469;27;46016;-44
2022/08/13 10:01:49;;;;;;;;;5.50;5.50;;;;;30.38;26.95;101018.81;5141907;27;45330;-48
2022/08/13 10:04:18;;;;;;;;;4.75;4.25;;;;;30.35;26.66;101008.44;5133251;27;45558;-47
2022/08/13 10:06:45;;;;;;;;;5.00;4.75;;;;;30.35;26.33;101009.25;5121782;27;46544;-50
2022/08/13 10:09:11;;;;;;;;;5.00;5.00;;;;;30.37;25.34;101009.09;5121841;27;45495;-48
2022/08/13 10:11:36;;;;;;;;;4.25;4.25;;;;;30.45;23.76;101007.28;5126847;27;45280;-47
2022/08/13 10:14:02;;;;;;;;;6.50;5.75;;;;;30.49;25.08;101005.09;5130925;27;45599;-51
2022/08/13 10:16:27;;;;;;;;;7.25;5.00;;;;;30.47;26.06;100999.06;5133649;27;50176;-47
2022/08/13 10:18:52;;;;;;;;;4.75;4.75;;;;;30.44;25.52;100999.41;5133586;27;45396;-47
2022/08/13 10:21:18;;;;;;;;;5.50;5.50;;;;;30.49;25.94;100991.69;5124095;27;45239;-43
2022/08/13 10:23:43;;;;;;;;;4.00;4.00;;;;;30.54;24.91;101000.91;5121896;27;45488;-46
2022/08/13 10:26:09;;;;;;;;;4.00;4.00;;;;;30.59;25.73;101001.25;5118826;27;46039;-47
2022/08/13 10:28:35;;;;;;;;;3.25;3.25;;;;;30.58;25.14;100999.56;5141596;27;45290;-48
2022/08/13 10:31:08;;;;;;;;;4.00;4.00;;;;;30.64;24.63;100995.44;5138044;27;45340;-44
2022/08/13 10:33:34;;;;;;;;;5.25;5.25;;;;;30.69;25.05;100990.41;5121710;27;45324;-48
2022/08/13 10:36:00;;;;;;;;;6.00;5.25;;;;;30.67;25.26;100996.94;5121416;27;46529;-46
2022/08/13 10:38:29;;;;;;;;;6.00;6.00;;;;;30.75;24.30;100988.91;5124980;27;45352;-46
2022/08/13 10:41:07;;;;;;;;;4.00;4.00;;;;;30.84;24.09;100995.97;5128125;27;45246;-45
2022/08/13 10:43:39;;;;;;;;;5.00;5.00;;;;;30.95;24.37;100994.78;5126790;27;45441;-47
2022/08/13 10:46:09;;;;;;;;;3.00;3.00;;;;;31.01;23.79;100984.19;5131165;27;46898;-45
2022/08/13 10:48:34;;;;;;;;;4.25;4.25;;;;;31.09;24.22;100973.47;5128136;27;45348;-46
2022/08/13 10:50:59;;;;;;;;;5.00;5.00;;;;;31.10;23.17;100976.97;5130979;27;45294;-49
2022/08/13 10:56:11;;;;;;;;;3.50;3.50;;;;;31.16;23.45;100969.06;5127672;27;45759;-50
2022/08/13 10:58:37;;;;;;;;;3.00;3.00;;;;;31.23;23.67;100968.41;5128442;27;45291;-50
2022/08/13 11:01:03;;;;;;;;;4.50;4.50;;;;;31.31;24.06;100968.41;5129573;27;45331;-54
2022/08/13 11:03:33;;;;;;;;;5.75;5.75;;;;;31.38;24.08;100970.22;5113406;27;45376;-52
2022/08/13 11:06:04;;;;;;;;;6.25;5.50;;;;;31.42;24.41;100965.34;5111080;27;47302;-53
2022/08/13 11:08:36;;;;;;;;;6.00;6.00;;;;;31.33;23.91;100967.22;5123540;27;45595;-53
2022/08/13 11:11:02;;;;;;;;;6.00;4.50;;;;;31.30;23.76;100967.56;5124675;27;45451;-54
2022/08/13 11:13:28;;;;;;;;;6.00;4.00;;;;;31.36;22.79;100963.34;5139006;27;45315;-54
2022/08/13 11:15:53;;;;;;;;;4.75;3.75;;;;;31.38;23.68;100961.34;5119732;27;46535;-55
2022/08/13 11:18:19;;;;;;;;;5.00;5.00;;;;;31.27;22.96;100967.91;5128339;27;45718;-55
2022/08/13 11:21:02;;;;;;;;;6.25;5.00;;;;;31.27;23.02;100972.47;5130936;27;45415;-54
2022/08/13 11:23:28;;;;;;;;;3.00;3.00;;;;;31.27;23.18;100967.91;5128335;27;45720;-55
2022/08/13 11:25:53;;;;;;;;;3.00;3.00;;;;;31.25;22.53;100959.19;5130329;27;45276;-55
2022/08/13 11:28:18;;;;;;;;;3.00;3.00;;;;;31.27;22.35;100962.56;5129893;27;47246;-55
2022/08/13 11:30:44;;;;;;;;;3.25;3.25;;;;;31.27;23.08;100964.41;5128969;27;45314;-54
2022/08/13 11:33:09;;;;;;;;;4.00;4.00;;;;;31.27;22.67;100957.19;5130004;27;45245;-54
2022/08/13 11:35:35;;;;;;;;;4.25;4.25;;;;;31.29;22.63;100955.16;5130082;27;45277;-54
2022/08/13 11:38:11;;;;;;;;;4.00;4.00;;;;;31.26;22.97;100960.88;5127525;27;45378;-54
2022/08/13 11:40:37;;;;;;;;;5.00;4.00;;;;;31.29;23.07;100957.84;5124812;27;46577;-54
2022/08/13 11:43:03;;;;;;;;;3.00;3.00;;;;;31.38;21.88;100950.59;5128570;27;45490;-57
2022/08/13 11:45:28;;;;;;;;;7.25;5.25;;;;;31.45;22.01;100952.44;5127321;27;45379;-51
2022/08/13 11:47:54;;;;;;;;;5.25;4.00;;;;;31.49;22.25;100947.53;5129429;27;45305;-52
2022/08/13 11:50:19;;;;;;;;;3.00;3.00;;;;;31.56;21.92;100939.63;5128071;27;45259;-54
2022/08/13 11:52:44;;;;;;;;;4.00;4.00;;;;;31.66;22.37;100946.47;5127773;27;45575;-52
2022/08/13 11:55:10;;;;;;;;;4.50;3.50;;;;;31.72;20.74;100932.38;5119893;27;46349;-51
2022/08/13 11:57:35;;;;;;;;;3.50;3.00;;;;;31.78;21.07;100939.72;5120033;27;45302;-49
2022/08/13 12:00:03;;;;;;;;;5.00;4.00;;;;;31.76;20.94;100935.53;5121177;27;45804;-50
2022/08/13 12:02:29;;;;;;;;;4.00;3.00;;;;;31.71;20.15;100940.56;5137416;27;45164;-47
2022/08/13 12:04:54;;;;;;;;;3.00;3.00;;;;;31.73;20.88;100935.91;5127528;27;45367;-51
2022/08/13 12:07:19;;;;;;;;;3.00;3.00;;;;;31.79;21.64;100929.81;5127545;27;54164;-51
2022/08/13 12:09:44;;;;;;;;;2.00;2.00;;;;;31.86;21.15;100929.97;5129412;27;45285;-54
2022/08/13 12:12:10;;;;;;;;;5.00;2.75;;;;;31.90;20.71;100925.91;5129394;27;45273;-54
2022/08/13 12:14:35;;;;;;;;;3.00;3.00;;;;;31.90;20.79;100917.84;5127670;27;45291;-54
2022/08/13 12:17:00;;;;;;;;;2.75;2.75;;;;;31.89;20.64;100919.69;5129928;27;45256;-54
2022/08/13 12:19:26;;;;;;;;;4.00;3.25;;;;;31.90;21.34;100910.59;5126445;27;45262;-54
2022/08/13 12:21:51;;;;;;;;;3.75;3.75;;;;;31.93;20.71;100917.47;5127400;27;48758;-55
2022/08/13 12:24:17;;;;;;;;;3.00;3.00;;;;;31.94;21.49;100913.78;5128922;27;45451;-51
2022/08/13 12:26:42;;;;;;;;;2.75;2.50;;;;;31.96;21.87;100917.13;5128076;27;45320;-53
2022/08/13 12:29:07;;;;;;;;;6.00;3.00;;;;;31.97;21.56;100916.94;5128647;27;45442;-52
2022/08/13 12:31:33;;;;;;;;;2.50;2.50;;;;;31.97;21.76;100910.72;5129269;27;45313;-52
2022/08/13 12:33:58;;;;;;;;;4.25;4.25;;;;;31.99;21.38;100903.31;5127418;27;45529;-52
2022/08/13 12:36:23;;;;;;;;;6.00;3.25;;;;;32.00;21.35;100905.81;5129008;27;45589;-52
2022/08/13 12:38:49;;;;;;;;;3.25;3.25;;;;;32.05;21.07;100910.69;5128754;27;45390;-52
2022/08/13 12:41:14;;;;;;;;;5.00;5.00;;;;;32.07;21.33;100900.59;5127544;27;45352;-54
2022/08/13 12:43:40;;;;;;;;;1.00;1.00;;;;;32.02;19.62;100897.59;5121909;27;46984;-53
2022/08/13 12:46:05;;;;;;;;;3.00;3.00;;;;;32.02;19.93;100902.97;5130719;27;45453;-51
2022/08/13 12:48:31;;;;;;;;;2.00;2.00;;;;;32.01;20.49;100901.28;5126436;27;45394;-52
2022/08/13 12:50:57;;;;;;;;;3.00;3.00;;;;;31.99;19.23;100895.25;5139095;27;45236;-51
2022/08/13 12:53:22;;;;;;;;;3.50;3.00;;;;;32.06;19.44;100894.38;5134718;27;46148;-54
2022/08/13 12:55:48;;;;;;;;;3.00;3.00;;;;;32.10;18.59;100894.84;5129181;27;45244;-54
2022/08/13 12:58:17;;;;;;;;;7.00;4.25;;;;;32.12;20.29;100894.69;5121251;27;45330;-51
2022/08/13 13:00:45;;;;;;;;;8.75;5.00;;;;;32.12;20.96;100890.13;5136337;27;45386;-55
2022/08/13 13:03:11;;;;;;;;;3.00;3.00;;;;;32.17;21.27;100887.75;5138824;27;45551;-59
2022/08/13 13:05:37;;;;;;;;;6.25;2.75;;;;;32.18;21.24;100885.88;5121045;27;45433;-54
2022/08/13 13:08:13;;;;;;;;;3.00;3.00;;;;;32.20;20.52;100876.63;5133087;27;45312;-54
2022/08/13 13:10:39;;;;;;;;;2.25;2.25;;;;;32.15;20.18;100870.94;5129347;27;45258;-60
2022/08/13 13:13:05;;;;;;;;;3.00;3.00;;;;;32.21;20.45;100880.13;5126416;27;46397;-58
2022/08/13 13:15:30;;;;;;;;;7.00;4.00;;;;;32.26;20.33;100878.63;5131071;27;45262;-56
2022/08/13 13:17:55;;;;;;;;;3.00;3.00;;;;;32.32;20.41;100863.63;5122357;27;45689;-56
2022/08/13 13:20:21;;;;;;;;;2.25;2.00;;;;;32.36;19.20;100865.78;5129590;27;45250;-56
2022/08/13 13:22:46;;;;;;;;;2.00;2.00;;;;;32.38;19.87;100858.34;5126311;27;45368;-55
2022/08/13 13:25:12;;;;;;;;;2.00;2.00;;;;;32.36;18.82;100846.94;5136755;27;45331;-57
2022/08/13 13:27:37;;;;;;;;;2.50;2.50;;;;;32.34;20.04;100848.97;5132772;27;45376;-58
2022/08/13 13:30:08;;;;;;;;;2.00;2.00;;;;;32.27;20.12;100837.28;5124786;27;45487;-57
2022/08/13 13:32:33;;;;;;;;;2.00;2.00;;;;;32.30;19.81;100841.47;5133396;27;46301;-57
2022/08/13 13:35:00;;;;;;;;;3.00;3.00;;;;;32.30;19.59;100844.97;5122860;27;45228;-58
2022/08/13 13:37:25;;;;;;;;;3.00;2.00;;;;;32.32;19.83;100842.09;5126979;27;45215;-58
2022/08/13 13:39:50;;;;;;;;;2.00;2.00;;;;;32.30;20.71;100841.47;5132105;27;45306;-57
2022/08/13 13:42:16;;;;;;;;;1.00;1.00;;;;;32.28;19.91;100846.19;5122124;27;46878;-58
2022/08/13 13:44:41;;;;;;;;;1.75;1.75;;;;;32.29;20.07;100837.09;5122589;27;45212;-57
2022/08/13 13:47:06;;;;;;;;;2.00;2.00;;;;;32.33;20.61;100835.72;5126297;27;47173;-56
2022/08/13 13:49:32;;;;;;;;;4.00;3.00;;;;;32.38;19.95;100831.44;5123949;27;45191;-56
2022/08/13 13:51:57;;;;;;;;;4.00;3.00;;;;;32.38;20.48;100831.44;5122910;27;45335;-56
2022/08/13 13:54:22;;;;;;;;;2.00;2.00;;;;;32.42;19.93;100831.91;5123345;27;45494;-60
2022/08/13 13:56:48;;;;;;;;;1.50;1.50;;;;;32.47;19.91;100823.31;5121996;27;45332;-57
2022/08/13 13:59:14;;;;;;;;;3.00;3.00;;;;;32.49;19.73;100823.97;5131622;27;45468;-60
2022/08/13 14:01:40;;;;;;;;;3.00;2.50;;;;;32.46;19.46;100825.19;5126426;27;46773;-57
2022/08/13 14:04:05;;;;;;;;;3.50;3.00;;;;;32.45;19.90;100828.06;5123600;27;45314;-55
2022/08/13 14:06:30;;;;;;;;;2.25;2.25;;;;;32.41;18.84;100826.72;5121759;27;45346;-56
2022/08/13 14:08:56;;;;;;;;;2.50;2.50;;;;;32.43;20.04;100828.19;5128977;27;45262;-55
2022/08/13 14:11:22;;;;;;;;;3.00;2.00;;;;;32.49;19.09;100823.97;5139975;27;45322;-54
2022/08/13 14:13:47;;;;;;;;;4.00;2.75;;;;;32.53;19.80;100820.72;5122057;27;45331;-56
2022/08/13 14:16:16;;;;;;;;;3.50;3.00;;;;;32.55;18.79;100813.31;5121686;27;45228;-57
2022/08/13 14:18:42;;;;;;;;;1.75;1.75;;;;;32.64;19.04;100804.16;5121762;27;45258;-57
2022/08/13 14:21:08;;;;;;;;;3.25;3.25;;;;;32.95;18.99;100817.44;5122621;27;45495;-59
2022/08/13 14:23:34;;;;;;;;;1.00;1.00;;;;;33.54;18.90;100811.16;5131157;27;45317;-60
2022/08/13 14:26:01;;;;;;;;;2.75;2.00;;;;;34.26;18.11;100807.56;5124926;27;45352;-60
2022/08/13 14:28:27;;;;;;;;;2.00;2.00;;;;;34.92;17.59;100799.94;5121190;27;45309;-59
2022/08/13 14:30:53;;;;;;;;;2.00;2.00;;;;;35.51;16.71;100802.09;5120917;27;51610;-59
2022/08/13 14:33:20;;;;;;;;;2.00;2.00;;;;;36.16;16.33;100812.19;5120473;27;45404;-60
2022/08/13 14:35:45;;;;;;;;;2.50;2.50;;;;;36.86;16.16;100804.47;5120893;27;45596;-60
2022/08/13 14:38:12;;;;;;;;;1.75;1.75;;;;;37.64;16.46;100810.59;5121918;27;45177;-60
2022/08/13 14:40:37;;;;;;;;;2.00;2.00;;;;;38.29;15.19;100815.81;5135009;27;45657;-61
2022/08/13 14:43:03;;;;;;;;;3.00;2.00;;;;;38.99;15.16;100801.94;5121842;27;45302;-60
2022/08/13 14:45:44;;;;;;;;;1.50;1.50;;;;;39.70;14.58;100804.81;5120046;27;45687;-61
2022/08/13 14:48:21;;;;;;;;;2.50;2.50;;;;;40.61;14.58;100805.44;5120751;27;45524;-61
2022/08/13 14:50:59;;;;;;;;;3.00;2.25;;;;;41.48;14.42;100806.19;5121452;27;45435;-61
2022/08/13 14:53:25;;;;;;;;;1.00;1.00;;;;;42.01;14.11;100804.13;5124030;27;45541;-62
2022/08/13 14:55:57;;;;;;;;;2.50;2.50;;;;;42.70;13.78;100791.84;5132337;27;45455;-62
2022/08/13 14:58:24;;;;;;;;;2.25;2.25;;;;;43.54;12.86;100790.66;5125383;27;45261;-62
2022/08/13 15:00:51;;;;;;;;;3.00;3.00;;;;;44.19;11.80;100793.16;5133186;27;47103;-62
2022/08/13 15:03:17;;;;;;;;;3.50;3.50;;;;;44.80;12.32;100782.56;5121143;27;45338;-62
2022/08/13 15:05:48;;;;;;;;;1.00;1.00;;;;;45.55;11.64;100791.31;5122456;27;45557;-62
2022/08/13 15:08:17;;;;;;;;;4.00;3.00;;;;;45.96;10.96;100785.84;5120973;27;45492;-62
2022/08/13 15:10:48;;;;;;;;;2.00;2.00;;;;;46.49;11.33;100784.44;5120715;27;46155;-62
2022/08/13 15:13:14;;;;;;;;;3.25;3.25;;;;;47.02;10.61;100779.25;5120827;27;45328;-63
2022/08/13 15:15:40;;;;;;;;;1.25;1.25;;;;;47.68;10.45;100770.59;5121110;27;45299;-63
2022/08/13 15:18:06;;;;;;;;;2.00;2.00;;;;;48.39;9.52;100774.63;5122446;27;45321;-63
2022/08/13 15:20:32;;;;;;;;;2.50;2.50;;;;;49.31;8.94;100782.56;5129955;27;45371;-61
2022/08/13 15:22:59;;;;;;;;;2.75;2.75;;;;;49.98;8.30;100779.53;5120669;27;45600;-61
2022/08/13 15:25:25;;;;;;;;;3.25;2.00;;;;;50.54;8.63;100782.06;5132924;27;45407;-61
2022/08/13 15:27:52;;;;;;;;;3.00;3.00;;;;;51.14;8.29;100778.31;5136351;27;45471;-60
2022/08/13 15:30:31;;;;;;;;;3.25;3.00;;;;;51.71;7.43;100768.38;5120800;27;46335;-61
2022/08/13 15:33:09;;;;;;;;;2.00;2.00;;;;;51.96;7.17;100772.41;5120712;27;45485;-60
2022/08/13 15:35:40;;;;;;;;;4.00;4.00;;;;;52.51;7.98;100767.28;5128240;27;45475;-61
2022/08/13 15:38:11;;;;;;;;;3.00;3.00;;;;;52.96;7.80;100769.00;5136338;27;45322;-60
2022/08/13 15:40:37;;;;;;;;;2.50;2.50;;;;;53.40;6.79;100756.78;5131798;27;45611;-60
2022/08/13 15:43:04;;;;;;;;;3.00;2.00;;;;;53.82;7.37;100757.81;5121163;27;45411;-60
2022/08/13 15:45:30;;;;;;;;;4.00;2.50;;;;;54.33;7.12;100767.16;5129180;27;45318;-61
2022/08/13 15:47:56;;;;;;;;;2.00;2.00;;;;;54.82;6.14;100756.38;5138929;27;45295;-63
2022/08/13 15:50:30;;;;;;;;;3.00;3.00;;;;;55.62;6.66;100750.59;5122947;27;46513;-60
2022/08/13 15:52:55;;;;;;;;;2.75;2.75;;;;;56.59;5.38;100744.28;5120266;27;45412;-61
2022/08/13 15:55:21;;;;;;;;;3.25;3.25;;;;;57.38;5.53;100748.19;5124072;27;45722;-59
2022/08/13 15:57:47;;;;;;;;;3.00;2.25;;;;;58.34;5.49;100745.09;5125135;27;45477;-59
2022/08/13 16:00:16;;;;;;;;;1.75;1.75;;;;;58.27;4.65;100744.06;5123705;27;46197;-58
2022/08/13 16:02:46;;;;;;;;;2.00;2.00;;;;;58.54;4.73;100743.13;5139825;27;45408;-58
2022/08/13 16:05:15;;;;;;;;;4.25;1.25;;;;;58.87;4.87;100733.44;5123165;27;45419;-61
2022/08/13 16:07:41;;;;;;;;;2.00;2.00;;;;;58.89;4.77;100729.09;5139006;27;45454;-61
2022/08/13 16:10:07;;;;;;;;;1.75;1.75;;;;;59.65;4.41;100730.16;5140133;27;46822;-61
2022/08/13 16:12:32;;;;;;;;;1.25;1.25;;;;;60.68;3.56;100736.59;5140703;27;45217;-58
2022/08/13 16:14:57;;;;;;;;;1.75;1.75;;;;;59.04;4.42;100736.63;5129158;27;45339;-59
2022/08/13 16:17:23;;;;;;;;;1.50;1.50;;;;;55.29;5.26;100734.72;5127584;27;45352;-59
2022/08/13 16:19:49;;;;;;;;;3.25;2.00;;;;;51.87;5.51;100733.56;5130264;27;45519;-60
2022/08/13 16:22:17;;;;;;;;;2.00;2.00;;;;;49.76;6.87;100722.16;5125052;27;45318;-59
2022/08/13 16:24:42;;;;;;;;;0.00;0.00;;;;;50.89;6.80;100718.81;5137829;27;45299;-59
2022/08/13 16:27:09;;;;;;;;;1.00;1.00;;;;;53.44;6.60;100733.53;5127417;27;45316;-59
2022/08/13 16:29:36;;;;;;;;;2.50;2.50;;;;;55.45;4.82;100732.88;5122284;27;45520;-59
2022/08/13 16:32:10;;;;;;;;;1.75;1.75;;;;;56.70;3.56;100723.88;5133162;27;45446;-59
2022/08/13 16:34:40;;;;;;;;;2.00;2.00;;;;;57.81;4.80;100725.00;5122570;27;46326;-58
2022/08/13 16:37:18;;;;;;;;;4.00;2.00;;;;;57.87;4.25;100717.94;5134649;27;45463;-59
2022/08/13 16:39:44;;;;;;;;;2.75;1.00;;;;;57.18;5.14;100710.09;5130273;27;45598;-58
2022/08/13 16:42:12;;;;;;;;;0.75;0.75;;;;;54.98;4.71;100704.50;5128073;27;45277;-58
2022/08/13 16:44:41;;;;;;;;;1.25;1.25;;;;;52.40;5.23;100702.13;5129531;27;45309;-58
2022/08/13 16:47:10;;;;;;;;;2.00;2.00;;;;;50.57;6.14;100701.22;5128866;27;45622;-58
2022/08/13 16:49:38;;;;;;;;;2.00;2.00;;;;;50.64;6.37;100696.06;5128921;27;47222;-58
2022/08/13 16:52:06;;;;;;;;;4.50;3.25;;;;;52.39;5.51;100705.22;5126896;27;45523;-58
2022/08/13 16:54:31;;;;;;;;;3.75;2.50;;;;;54.22;5.30;100694.34;5130334;27;45451;-58
2022/08/13 16:56:57;;;;;;;;;2.00;2.00;;;;;55.63;4.75;100697.28;5126714;27;45351;-59
2022/08/13 16:59:23;;;;;;;;;1.25;1.25;;;;;56.75;4.15;100697.69;5129930;27;45297;-58
2022/08/13 17:01:49;;;;;;;;;2.50;2.50;;;;;57.78;4.90;100696.94;5129331;27;45376;-59
2022/08/13 17:09:42;;;;;;;;;3.00;2.75;;;;;56.15;4.57;100693.81;5129216;27;45737;-59
2022/08/13 17:12:08;;;;;;;;;1.50;1.50;;;;;52.71;5.13;100690.13;5143605;27;45311;-59
2022/08/13 17:14:35;;;;;;;;;2.50;2.00;;;;;49.56;6.31;100688.22;5127718;27;45281;-58
2022/08/13 17:17:02;;;;;;;;;3.00;2.00;;;;;47.07;7.56;100677.41;5122447;27;45234;-54
2022/08/13 17:19:30;;;;;;;;;1.50;1.50;;;;;44.59;8.52;100676.63;5136313;27;47119;-57
2022/08/13 17:21:56;;;;;;;;;2.25;2.00;;;;;42.65;9.52;100679.72;5122940;27;45445;-57
2022/08/13 17:24:23;;;;;;;;;2.25;2.25;;;;;41.24;10.16;100682.72;5136013;27;45259;-56
2022/08/13 17:26:49;;;;;;;;;3.50;2.00;;;;;40.04;11.43;100675.28;5121290;27;45475;-57
2022/08/13 17:29:19;;;;;;;;;1.50;1.50;;;;;39.10;11.68;100678.91;5122500;27;46993;-56
2022/08/13 17:31:46;;;;;;;;;1.75;1.75;;;;;38.26;12.95;100681.38;5134145;27;45716;-56
2022/08/13 17:34:12;;;;;;;;;4.50;4.50;;;;;37.61;12.24;100686.28;5119962;27;45266;-54
2022/08/13 17:36:39;;;;;;;;;2.00;2.00;;;;;37.04;12.87;100666.41;5133593;27;45419;-55
2022/08/13 17:39:05;;;;;;;;;2.00;2.00;;;;;36.51;13.24;100672.06;5123625;27;46592;-53
2022/08/13 17:41:31;;;;;;;;;1.00;1.00;;;;;36.04;14.03;100661.50;5122357;27;45145;-54
2022/08/13 17:43:56;;;;;;;;;1.25;1.25;;;;;35.65;13.49;100653.22;5141430;27;45277;-54
2022/08/13 17:46:22;;;;;;;;;2.75;2.75;;;;;35.40;14.53;100659.41;5130354;27;45146;-53
2022/08/13 17:48:49;;;;;;;;;2.00;2.00;;;;;35.15;14.78;100662.69;5122043;27;46383;-52
2022/08/13 17:51:15;;;;;;;;;3.00;1.00;;;;;34.88;15.33;100660.97;5122022;27;45563;-52
2022/08/13 17:53:42;;;;;;;;;2.50;2.50;;;;;34.60;15.08;100661.84;5121911;27;45487;-54
2022/08/13 17:56:11;;;;;;;;;2.00;2.00;;;;;34.38;14.99;100660.28;5133076;27;45591;-53
2022/08/13 17:58:37;;;;;;;;;2.25;2.25;;;;;34.20;15.54;100662.63;5125505;27;46364;-53
2022/08/13 18:01:08;;;;;;;;;3.00;2.00;;;;;34.03;15.64;100656.72;5131944;27;45478;-52
2022/08/13 18:03:35;;;;;;;;;3.25;2.00;;;;;33.88;16.13;100656.84;5123302;27;45386;-52
2022/08/13 18:06:01;;;;;;;;;2.00;2.00;;;;;33.75;16.10;100659.38;5130176;27;45442;-53
2022/08/13 18:08:27;;;;;;;;;3.25;2.00;;;;;33.64;16.10;100668.84;5121797;27;45296;-52
2022/08/13 18:10:53;;;;;;;;;2.00;2.00;;;;;33.54;15.54;100661.06;5121857;27;45200;-53
2022/08/13 18:13:19;;;;;;;;;2.75;2.00;;;;;33.47;15.84;100657.50;5121840;27;45405;-52
2022/08/13 18:15:44;;;;;;;;;2.75;1.75;;;;;33.35;16.17;100663.59;5122072;27;45444;-53
2022/08/13 18:18:10;;;;;;;;;1.75;1.75;;;;;33.21;16.85;100659.88;5120871;27;46422;-52
2022/08/13 18:20:35;;;;;;;;;2.00;2.00;;;;;33.10;16.74;100671.19;5121814;27;45310;-54
2022/08/13 18:23:01;;;;;;;;;2.75;2.75;;;;;33.01;17.09;100672.31;5135638;27;45365;-53
2022/08/13 18:25:28;;;;;;;;;3.75;2.00;;;;;32.91;17.40;100667.25;5121394;27;45353;-53
2022/08/13 18:27:56;;;;;;;;;2.50;2.50;;;;;32.85;16.90;100668.84;5121440;27;47007;-53
2022/08/13 18:30:22;;;;;;;;;3.00;2.25;;;;;32.78;17.19;100665.19;5121933;27;45478;-54
2022/08/13 18:32:49;;;;;;;;;4.00;3.50;;;;;32.71;16.70;100661.59;5121435;27;45447;-52
2022/08/13 18:35:16;;;;;;;;;2.25;2.25;;;;;32.65;17.12;100656.97;5121771;27;45470;-53
2022/08/13 18:37:42;;;;;;;;;4.00;4.00;;;;;32.60;17.25;100667.44;5121357;27;46528;-53
2022/08/13 18:40:12;;;;;;;;;2.50;2.50;;;;;32.50;17.60;100654.28;5121279;27;45452;-52
2022/08/13 18:42:38;;;;;;;;;3.00;3.00;;;;;32.43;17.99;100647.97;5121536;27;45218;-52
2022/08/13 18:45:10;;;;;;;;;3.50;3.25;;;;;32.34;17.88;100643.72;5120212;27;45590;-52
2022/08/13 18:47:35;;;;;;;;;4.50;4.50;;;;;32.28;17.81;100639.91;5120592;27;45492;-51
2022/08/13 18:50:02;;;;;;;;;5.00;3.75;;;;;32.23;18.43;100642.28;5121110;27;45168;-52
2022/08/13 18:52:28;;;;;;;;;3.75;3.75;;;;;32.17;18.26;100640.34;5102606;27;45335;-52
2022/08/13 18:54:53;;;;;;;;;3.00;3.00;;;;;32.13;18.47;100643.59;5131392;27;45541;-52
2022/08/13 18:57:18;;;;;;;;;3.25;3.25;;;;;32.03;18.54;100647.34;5126527;27;46280;-52
2022/08/13 18:59:44;;;;;;;;;3.00;3.00;;;;;31.95;18.61;100643.94;5121367;27;45324;-53
2022/08/13 19:02:10;;;;;;;;;4.50;3.00;;;;;31.89;18.80;100644.69;5121204;27;45479;-54
2022/08/13 19:04:36;;;;;;;;;4.00;4.00;;;;;31.80;18.67;100635.00;5122758;27;45494;-56
2022/08/13 19:07:03;;;;;;;;;3.00;3.00;;;;;31.76;18.43;100637.22;5141777;27;47143;-56
2022/08/13 19:09:29;;;;;;;;;4.25;4.25;;;;;31.70;18.83;100628.03;5127523;27;45189;-56
2022/08/13 19:11:55;;;;;;;;;3.00;3.00;;;;;31.66;19.16;100629.41;5121066;27;45431;-57
2022/08/13 19:14:25;;;;;;;;;5.50;5.50;;;;;31.59;19.46;100641.03;5120973;27;45528;-56
2022/08/13 19:16:52;;;;;;;;;4.25;4.00;;;;;31.51;19.51;100641.13;5120721;27;46525;-56
2022/08/13 19:19:22;;;;;;;;;5.50;5.50;;;;;31.43;19.63;100644.69;5120996;27;45377;-57
2022/08/13 19:21:47;;;;;;;;;5.00;5.00;;;;;31.35;19.62;100647.44;5127417;27;45293;-58
2022/08/13 19:24:12;;;;;;;;;5.75;5.75;;;;;31.28;19.80;100647.34;5124346;27;45534;-58
2022/08/13 19:26:38;;;;;;;;;6.75;5.75;;;;;31.23;19.88;100649.72;5120303;27;45757;-55
2022/08/13 19:29:04;;;;;;;;;6.50;5.00;;;;;31.20;19.63;100649.22;5120718;27;45736;-55
2022/08/13 19:31:32;;;;;;;;;7.50;5.00;;;;;31.13;19.95;100655.28;5119534;27;45285;-55
2022/08/13 19:33:58;;;;;;;;;3.50;3.25;;;;;31.07;20.45;100657.84;5120568;27;45448;-56
2022/08/13 19:36:24;;;;;;;;;6.25;5.00;;;;;31.03;19.81;100668.09;5120511;27;45265;-55
2022/08/13 19:38:49;;;;;;;;;7.50;6.00;;;;;30.99;20.37;100665.94;5120018;27;45263;-55
2022/08/13 19:41:15;;;;;;;;;5.00;5.00;;;;;30.96;20.11;100669.81;5131086;27;45516;-58
2022/08/13 19:43:40;;;;;;;;;5.00;5.00;;;;;30.92;20.35;100676.56;5123859;27;45473;-56
2022/08/13 19:46:06;;;;;;;;;6.25;4.75;;;;;30.90;20.52;100680.44;5119945;27;46322;-56
2022/08/13 19:48:36;;;;;;;;;7.50;5.75;;;;;30.83;20.57;100680.28;5119716;27;45227;-52
2022/08/13 19:51:02;;;;;;;;;8.25;6.50;;;;;30.75;20.43;100688.38;5119607;27;45406;-55
2022/08/13 19:53:27;;;;;;;;;6.00;6.00;;;;;30.70;21.25;100677.34;5119010;27;45509;-55
2022/08/13 19:55:53;;;;;;;;;6.00;6.00;;;;;30.65;20.51;100666.31;5131563;27;45334;-54
2022/08/13 19:58:18;;;;;;;;;9.75;9.00;;;;;30.63;20.98;100663.75;5121310;27;45281;-51
2022/08/13 20:00:45;;;;;;;;;7.25;7.00;;;;;30.59;20.64;100667.78;5120413;27;45275;-50
2022/08/13 20:03:21;;;;;;;;;7.00;6.25;;;;;30.54;21.10;100656.75;5119184;27;45221;-53
2022/08/13 20:05:47;;;;;;;;;9.75;8.00;;;;;30.48;20.93;100658.28;5120592;27;45433;-53
2022/08/13 20:08:12;;;;;;;;;6.00;6.00;;;;;30.44;21.82;100653.44;5119948;27;45504;-52
